createdAt,value
2023-04-30T00:01:09.403Z,85.7
2023-04-30T00:11:09.563Z,86.2
2023-04-30T00:21:09.353Z,86.8
2023-04-30T00:31:09.256Z,87.6
2023-04-30T00:41:09.185Z,88.0
2023-04-30T00:51:09.287Z,87.8
2023-04-30T01:01:09.345Z,87.9
2023-04-30T01:11:09.259Z,89.2
2023-04-30T01:21:09.169Z,90.5
2023-04-30T01:31:09.332Z,90.9
2023-04-30T01:41:09.211Z,91.5
2023-04-30T01:51:09.209Z,92.7
2023-04-30T02:01:09.377Z,93.6
2023-04-30T02:11:09.701Z,93.8
2023-04-30T02:21:09.453Z,94.0
2023-04-30T02:31:10.187Z,94.6
2023-04-30T02:41:09.353Z,94.9
2023-04-30T02:51:09.627Z,94.9
2023-04-30T03:01:09.353Z,95.0
2023-04-30T03:11:09.236Z,94.9
2023-04-30T03:21:09.173Z,95.4
2023-04-30T03:31:09.327Z,95.8
2023-04-30T03:41:09.203Z,96.0
2023-04-30T03:51:09.188Z,95.9
2023-04-30T04:01:09.442Z,96.2
2023-04-30T04:11:09.179Z,96.2
2023-04-30T04:21:09.348Z,96.1
2023-04-30T04:31:09.219Z,96.5
2023-04-30T04:41:09.215Z,96.6
2023-04-30T04:51:09.348Z,97.4
2023-04-30T05:01:09.203Z,97.7
2023-04-30T05:11:09.606Z,97.6
2023-04-30T05:21:09.206Z,97.5
2023-04-30T05:31:09.296Z,97.4
2023-04-30T05:41:09.244Z,96.4
2023-04-30T05:51:09.411Z,94.5
2023-04-30T06:01:09.283Z,92.0
2023-04-30T06:11:09.192Z,90.0
2023-04-30T06:21:09.491Z,87.7
2023-04-30T06:31:09.309Z,85.5
2023-04-30T06:41:09.221Z,83.7
2023-04-30T06:51:10.895Z,83.5
2023-04-30T07:01:09.250Z,82.6
2023-04-30T07:11:09.333Z,81.6
2023-04-30T07:21:09.336Z,79.7
2023-04-30T07:31:09.863Z,77.7
2023-04-30T07:41:09.373Z,78.1
2023-04-30T07:51:09.249Z,76.5
2023-04-30T08:01:09.316Z,74.6
2023-04-30T08:11:09.885Z,75.0
2023-04-30T08:21:09.266Z,74.8
2023-04-30T08:31:09.231Z,72.9
2023-04-30T08:41:09.264Z,70.4
2023-04-30T08:51:09.454Z,70.9
2023-04-30T09:01:09.249Z,68.2
2023-04-30T09:11:09.349Z,68.1
2023-04-30T09:21:09.276Z,65.3
2023-04-30T09:31:09.248Z,63.6
2023-04-30T09:41:09.706Z,61.7
2023-04-30T09:51:09.251Z,62.3
2023-04-30T10:01:09.258Z,60.7
2023-04-30T10:11:09.319Z,59.5
2023-04-30T10:21:09.408Z,60.1
2023-04-30T10:31:09.437Z,56.4
2023-04-30T10:41:09.732Z,55.8
2023-04-30T10:51:09.523Z,57.4
2023-04-30T11:01:09.454Z,56.8
2023-04-30T11:11:09.986Z,55.8
2023-04-30T11:21:09.633Z,56.4
2023-04-30T11:31:09.623Z,54.2
2023-04-30T11:41:09.601Z,56.3
2023-04-30T11:51:09.809Z,55.3
2023-04-30T12:01:09.923Z,53.9
2023-04-30T12:11:09.716Z,52.9
2023-04-30T12:21:09.701Z,52.4
2023-04-30T12:31:09.663Z,54.0
2023-04-30T12:41:09.654Z,53.6
2023-04-30T12:51:09.724Z,53.2
2023-04-30T13:01:09.699Z,52.6
2023-04-30T13:11:11.490Z,52.3
2023-04-30T13:21:09.913Z,53.5
2023-04-30T13:31:09.759Z,50.3
2023-04-30T13:41:09.651Z,52.4
2023-04-30T13:51:11.253Z,49.1
2023-04-30T14:01:09.748Z,50.9
2023-04-30T14:11:09.735Z,52.9
2023-04-30T14:21:09.767Z,53.6
2023-04-30T14:31:09.711Z,53.0
2023-04-30T14:41:09.656Z,52.0
2023-04-30T14:51:09.966Z,50.4
2023-04-30T15:01:09.690Z,49.0
2023-04-30T15:11:10.018Z,51.3
2023-04-30T15:21:09.617Z,54.1
2023-04-30T15:31:10.008Z,51.2
2023-04-30T15:41:10.027Z,52.0
2023-04-30T15:51:09.971Z,54.8
2023-04-30T16:01:09.947Z,53.9
2023-04-30T16:11:10.000Z,53.1
2023-04-30T16:21:10.369Z,54.6
2023-04-30T16:31:10.609Z,53.4
2023-04-30T16:41:10.087Z,55.6
2023-04-30T16:51:10.095Z,56.3
2023-04-30T17:01:09.996Z,53.8
2023-04-30T17:11:11.250Z,55.6
2023-04-30T17:21:10.053Z,56.0
2023-04-30T17:31:10.026Z,55.5
2023-04-30T17:41:10.133Z,56.0
2023-04-30T17:51:10.236Z,57.5
2023-04-30T18:01:10.048Z,57.1
2023-04-30T18:11:10.259Z,57.9
2023-04-30T18:21:10.017Z,60.5
2023-04-30T18:31:10.147Z,60.3
2023-04-30T18:41:10.125Z,63.1
2023-04-30T18:51:10.429Z,62.9
2023-04-30T19:01:10.184Z,61.8
2023-04-30T19:11:10.565Z,63.0
2023-04-30T19:21:10.054Z,64.0
2023-04-30T19:31:10.161Z,69.1
2023-04-30T19:41:10.100Z,68.1
2023-04-30T19:51:10.792Z,68.6
2023-04-30T20:01:10.129Z,69.5
2023-04-30T20:11:10.169Z,69.4
2023-04-30T20:21:10.160Z,71.2
2023-04-30T20:31:10.248Z,71.4
2023-04-30T20:41:10.157Z,72.7
2023-04-30T20:51:10.580Z,73.6
2023-04-30T21:01:10.116Z,74.1
2023-04-30T21:11:10.365Z,75.3
2023-04-30T21:21:10.405Z,75.0
2023-04-30T21:31:10.308Z,75.9
2023-04-30T21:41:10.303Z,77.7
2023-04-30T21:51:11.160Z,78.4
2023-04-30T22:01:10.160Z,78.2
2023-04-30T22:11:10.158Z,77.7
2023-04-30T22:21:10.391Z,78.1
2023-04-30T22:31:10.277Z,78.9
2023-04-30T22:41:10.627Z,80.1
2023-04-30T22:51:10.283Z,81.2
2023-04-30T23:01:18.070Z,81.3
2023-04-30T23:11:10.478Z,81.6
2023-04-30T23:21:10.146Z,82.5
2023-04-30T23:31:11.770Z,82.4
2023-04-30T23:41:12.046Z,83.2
2023-04-30T23:51:12.881Z,83.6
